Time;durP1;ratioP1;P1;durP2;ratioP2;P2;SDS_P1;SDS_P2;PMS_P1;PMS_P2;Temp;Humidity;BMP_temperature;BMP_pressure;BME280_temperature;BME280_humidity;BME280_pressure;Samples;Min_cycle;Max_cycle;Signal;HPM_P1;HPM_P2
2023/12/29 00:00:10;;;;;;;3.05;1.90;;;10.00;98.80;;;;;;6150923;23;20036;-64
2023/12/29 00:02:56;;;;;;;2.85;1.38;;;10.00;98.80;;;;;;6181129;23;20103;-64
2023/12/29 00:05:42;;;;;;;4.35;2.08;;;10.00;98.90;;;;;;6179541;23;20017;-64
2023/12/29 00:08:29;;;;;;;4.13;1.98;;;10.00;98.80;;;;;;6181828;23;20021;-64
2023/12/29 00:11:22;;;;;;;4.03;2.10;;;10.10;98.90;;;;;;6179147;23;20327;-64
2023/12/29 00:14:08;;;;;;;2.90;1.73;;;10.10;98.90;;;;;;6177400;23;20016;-63
2023/12/29 00:16:57;;;;;;;2.83;1.60;;;10.10;98.90;;;;;;6180244;23;20016;-64
2023/12/29 00:19:43;;;;;;;4.55;2.00;;;10.10;98.90;;;;;;6180624;23;20013;-65
2023/12/29 00:22:29;;;;;;;4.20;1.70;;;10.20;98.90;;;;;;6181015;23;20001;-65
2023/12/29 00:25:15;;;;;;;3.10;1.92;;;10.10;98.90;;;;;;6179559;23;20079;-64
2023/12/29 00:28:01;;;;;;;3.97;2.30;;;10.20;98.90;;;;;;6180346;23;20439;-64
2023/12/29 00:30:47;;;;;;;2.65;1.67;;;10.20;98.90;;;;;;6179667;23;20345;-65
2023/12/29 00:33:33;;;;;;;8.27;2.45;;;10.20;98.80;;;;;;6180731;23;20064;-64
2023/12/29 00:36:20;;;;;;;4.10;2.42;;;10.20;98.80;;;;;;6179420;23;20385;-64
2023/12/29 00:39:06;;;;;;;2.85;1.80;;;10.20;98.80;;;;;;6180998;23;20012;-64
2023/12/29 00:41:52;;;;;;;4.13;1.80;;;10.20;98.80;;;;;;6179016;23;20017;-64
2023/12/29 00:44:38;;;;;;;3.33;1.92;;;10.20;98.80;;;;;;6179172;23;20028;-64
2023/12/29 00:47:24;;;;;;;3.17;1.73;;;10.20;98.70;;;;;;6180895;23;20441;-64
2023/12/29 00:50:09;;;;;;;3.60;2.05;;;10.20;98.70;;;;;;6180488;23;20016;-64
2023/12/29 00:52:55;;;;;;;3.58;1.92;;;10.20;98.70;;;;;;6179568;23;20442;-63
2023/12/29 00:55:41;;;;;;;2.08;1.60;;;10.20;98.70;;;;;;6180432;23;20067;-64
2023/12/29 00:58:27;;;;;;;2.78;1.75;;;10.30;98.60;;;;;;6178734;23;20017;-64
2023/12/29 01:01:13;;;;;;;4.45;2.08;;;10.30;98.60;;;;;;6179718;23;20032;-66
2023/12/29 01:03:59;;;;;;;2.72;1.50;;;10.30;98.50;;;;;;6177629;23;20080;-64
2023/12/29 01:06:45;;;;;;;2.33;1.55;;;10.30;98.50;;;;;;6180576;23;20005;-67
2023/12/29 01:09:31;;;;;;;4.07;1.73;;;10.30;98.40;;;;;;6178090;23;20019;-65
2023/12/29 01:12:17;;;;;;;2.97;1.55;;;10.30;98.40;;;;;;6179978;23;20013;-65
2023/12/29 01:15:03;;;;;;;2.15;1.48;;;10.30;98.40;;;;;;6179719;23;20017;-66
2023/12/29 01:17:49;;;;;;;2.88;1.63;;;10.30;98.40;;;;;;6181565;23;20055;-64
2023/12/29 01:20:35;;;;;;;4.10;1.85;;;10.30;98.40;;;;;;6182876;23;20456;-62
2023/12/29 01:23:21;;;;;;;5.43;1.83;;;10.30;98.40;;;;;;6179337;23;20005;-60
2023/12/29 01:26:07;;;;;;;4.72;1.77;;;10.20;98.40;;;;;;6158687;23;20021;-60
2023/12/29 01:28:53;;;;;;;3.10;1.50;;;10.20;98.40;;;;;;6179461;23;20557;-61
2023/12/29 01:31:39;;;;;;;4.05;1.65;;;10.20;98.40;;;;;;6180320;23;20442;-61
2023/12/29 01:34:32;;;;;;;3.20;1.75;;;10.20;98.40;;;;;;6181693;23;20009;-61
2023/12/29 01:37:18;;;;;;;3.25;1.80;;;10.20;98.30;;;;;;6180314;23;20009;-61
2023/12/29 01:40:04;;;;;;;2.03;1.27;;;10.30;98.40;;;;;;6180937;23;20012;-61
2023/12/29 01:42:50;;;;;;;3.53;1.60;;;10.20;98.40;;;;;;6181477;23;20017;-61
2023/12/29 01:45:36;;;;;;;2.67;1.83;;;10.20;98.40;;;;;;6180858;23;20016;-62
2023/12/29 01:48:24;;;;;;;2.65;1.67;;;10.20;98.40;;;;;;6181955;23;20036;-60
2023/12/29 01:51:10;;;;;;;2.42;1.60;;;10.20;98.30;;;;;;6179763;23;20079;-61
2023/12/29 01:53:57;;;;;;;4.38;1.80;;;10.20;98.30;;;;;;6180355;23;20028;-61
2023/12/29 01:56:43;;;;;;;3.03;1.45;;;10.20;98.30;;;;;;6179421;23;20080;-61
2023/12/29 01:59:31;;;;;;;2.00;1.48;;;10.20;98.30;;;;;;6181258;23;20019;-61
2023/12/29 02:02:17;;;;;;;2.05;1.35;;;10.20;98.30;;;;;;6180277;23;20496;-61
2023/12/29 02:05:03;;;;;;;2.83;1.80;;;10.10;98.20;;;;;;6181729;23;20021;-61
2023/12/29 02:07:52;;;;;;;2.65;1.42;;;10.20;98.30;;;;;;6181238;23;20046;-61
2023/12/29 02:10:38;;;;;;;3.10;1.50;;;10.20;98.30;;;;;;6179692;23;20017;-61
2023/12/29 02:13:23;;;;;;;2.55;1.45;;;10.20;98.30;;;;;;6179431;23;20017;-61
2023/12/29 02:16:22;;;;;;;3.35;2.00;;;10.20;98.30;;;;;;6181796;23;20025;-61
2023/12/29 02:19:25;;;;;;;3.47;1.88;;;10.20;98.30;;;;;;6181010;23;20016;-61
2023/12/29 02:22:12;;;;;;;3.28;1.80;;;10.20;98.30;;;;;;6180205;23;20581;-60
2023/12/29 02:24:58;;;;;;;3.33;2.13;;;10.20;98.30;;;;;;6181008;23;20021;-60
2023/12/29 02:27:54;;;;;;;2.38;1.38;;;10.20;98.30;;;;;;6181440;23;20016;-60
2023/12/29 02:30:50;;;;;;;2.67;1.70;;;10.20;98.30;;;;;;6178607;23;20009;-60
2023/12/29 02:33:40;;;;;;;2.38;1.50;;;10.20;98.30;;;;;;6182001;23;20040;-60
2023/12/29 02:36:26;;;;;;;3.28;1.75;;;10.20;98.30;;;;;;6178437;23;20013;-60
2023/12/29 02:39:12;;;;;;;2.45;1.48;;;10.20;98.30;;;;;;6176447;23;20438;-61
2023/12/29 02:41:58;;;;;;;3.97;1.85;;;10.20;98.30;;;;;;6182796;23;20084;-61
2023/12/29 02:44:44;;;;;;;3.58;1.67;;;10.20;98.30;;;;;;6180250;23;20100;-60
2023/12/29 02:47:30;;;;;;;1.92;1.48;;;10.20;98.30;;;;;;6182493;23;20009;-61
2023/12/29 02:50:16;;;;;;;2.63;1.50;;;10.20;98.30;;;;;;6181232;23;20500;-61
2023/12/29 02:53:04;;;;;;;2.03;1.45;;;10.20;98.30;;;;;;6158013;23;20066;-60
2023/12/29 02:55:49;;;;;;;4.45;1.90;;;10.20;98.30;;;;;;6182690;23;20460;-61
2023/12/29 02:58:35;;;;;;;2.63;1.55;;;10.20;98.30;;;;;;6180641;23;20020;-61
2023/12/29 03:01:21;;;;;;;2.28;1.50;;;10.20;98.30;;;;;;6180424;23;20029;-61
2023/12/29 03:04:07;;;;;;;2.55;1.58;;;10.20;98.50;;;;;;6182157;23;20021;-61
2023/12/29 03:06:53;;;;;;;3.45;1.67;;;10.20;98.30;;;;;;6180792;23;20020;-60
2023/12/29 03:09:39;;;;;;;3.08;1.80;;;10.30;98.30;;;;;;6180046;23;20012;-60
2023/12/29 03:12:25;;;;;;;2.40;1.42;;;10.30;98.30;;;;;;6179500;23;20009;-61
2023/12/29 03:15:11;;;;;;;2.85;1.60;;;10.30;98.30;;;;;;6180028;23;20450;-62
2023/12/29 03:17:57;;;;;;;2.47;1.50;;;10.20;98.30;;;;;;6180615;23;20016;-60
2023/12/29 03:20:43;;;;;;;4.15;1.50;;;10.20;98.30;;;;;;6180746;23;20009;-60
2023/12/29 03:23:29;;;;;;;2.42;1.50;;;10.30;98.30;;;;;;6182188;23;20468;-61
2023/12/29 03:26:15;;;;;;;1.55;1.20;;;10.30;98.20;;;;;;6179191;23;20017;-60
2023/12/29 03:29:01;;;;;;;2.08;1.40;;;10.30;98.20;;;;;;6181582;23;20005;-60
2023/12/29 03:31:47;;;;;;;2.63;1.85;;;10.30;98.20;;;;;;6179939;23;20083;-59
2023/12/29 03:34:33;;;;;;;2.65;1.70;;;10.30;98.20;;;;;;6179058;23;20031;-60
2023/12/29 03:37:19;;;;;;;2.63;1.33;;;10.30;98.20;;;;;;6179730;23;20024;-61
2023/12/29 03:40:06;;;;;;;3.15;1.50;;;10.30;98.20;;;;;;6181007;23;20012;-61
2023/12/29 03:42:52;;;;;;;2.38;1.35;;;10.30;98.20;;;;;;6182243;23;20040;-61
2023/12/29 03:45:38;;;;;;;3.53;1.52;;;10.30;98.20;;;;;;6180436;23;20032;-61
2023/12/29 03:48:24;;;;;;;1.95;1.45;;;10.40;98.20;;;;;;6182176;23;20453;-61
2023/12/29 03:51:10;;;;;;;1.33;1.23;;;10.40;98.20;;;;;;6179065;23;20485;-61
2023/12/29 03:53:58;;;;;;;3.13;1.50;;;10.40;98.20;;;;;;6180273;23;20492;-61
2023/12/29 03:56:44;;;;;;;2.60;1.40;;;10.40;98.10;;;;;;6182571;23;20004;-61
2023/12/29 03:59:30;;;;;;;2.85;1.50;;;10.40;98.10;;;;;;6180345;23;20465;-61
2023/12/29 04:02:17;;;;;;;2.08;1.30;;;10.40;98.10;;;;;;6180607;23;20024;-61
2023/12/29 04:05:05;;;;;;;3.22;1.30;;;10.50;98.10;;;;;;6179541;23;20017;-61
2023/12/29 04:07:51;;;;;;;2.67;1.52;;;10.50;98.10;;;;;;6181116;23;20009;-60
2023/12/29 04:10:37;;;;;;;1.83;1.20;;;10.60;98.10;;;;;;6181608;23;20099;-62
2023/12/29 04:13:23;;;;;;;2.53;1.60;;;10.60;98.10;;;;;;6180442;23;20394;-61
2023/12/29 04:16:09;;;;;;;1.65;1.10;;;10.60;98.10;;;;;;6178433;23;20570;-60
2023/12/29 04:18:55;;;;;;;2.53;1.48;;;10.60;98.00;;;;;;6180171;23;20009;-61
2023/12/29 04:21:41;;;;;;;1.45;1.20;;;10.60;98.00;;;;;;6178629;23;20358;-61
2023/12/29 04:24:27;;;;;;;3.00;1.35;;;10.60;97.90;;;;;;6180477;23;20021;-60
2023/12/29 04:27:14;;;;;;;2.63;1.13;;;10.60;97.90;;;;;;6180107;23;20001;-60
2023/12/29 04:30:00;;;;;;;1.75;1.20;;;10.60;97.90;;;;;;6179449;23;20091;-60
2023/12/29 04:32:46;;;;;;;1.85;1.30;;;10.60;97.90;;;;;;6181750;23;20005;-60
2023/12/29 04:35:32;;;;;;;1.42;1.05;;;10.60;97.90;;;;;;6179078;23;20438;-61
2023/12/29 04:38:19;;;;;;;1.45;1.10;;;10.60;97.90;;;;;;6177912;23;20009;-62
2023/12/29 04:41:05;;;;;;;2.50;1.15;;;10.60;97.90;;;;;;6178898;23;20008;-62
2023/12/29 04:43:51;;;;;;;2.40;1.30;;;10.60;97.80;;;;;;6179576;23;20005;-62
2023/12/29 04:46:37;;;;;;;2.47;1.20;;;10.60;97.80;;;;;;6183299;23;20013;-63
2023/12/29 04:49:23;;;;;;;1.80;1.00;;;10.60;97.80;;;;;;6180790;23;20009;-61
2023/12/29 04:52:09;;;;;;;1.77;1.45;;;10.60;97.80;;;;;;6180846;23;20024;-62
2023/12/29 04:54:55;;;;;;;1.90;1.38;;;10.60;97.80;;;;;;6178613;23;20006;-61
2023/12/29 04:57:41;;;;;;;1.17;1.02;;;10.60;97.80;;;;;;6181069;23;20468;-61
2023/12/29 05:00:27;;;;;;;1.92;1.27;;;10.60;97.80;;;;;;6181380;23;20206;-60
2023/12/29 05:03:13;;;;;;;1.25;0.90;;;10.60;97.80;;;;;;6180664;23;20399;-61
2023/12/29 05:05:58;;;;;;;2.78;1.10;;;10.60;97.80;;;;;;6182059;23;20384;-61
2023/12/29 05:08:44;;;;;;;2.38;1.05;;;10.60;97.80;;;;;;6162751;23;20470;-61
2023/12/29 05:11:30;;;;;;;1.52;1.17;;;10.60;97.80;;;;;;6160028;23;20016;-61
2023/12/29 05:14:16;;;;;;;1.63;1.08;;;10.60;97.90;;;;;;6182720;23;20009;-61
2023/12/29 05:17:02;;;;;;;1.80;1.10;;;10.60;97.90;;;;;;6182869;23;20009;-60
2023/12/29 05:19:48;;;;;;;1.88;1.20;;;10.50;97.90;;;;;;6181576;23;20016;-61
2023/12/29 05:22:34;;;;;;;2.17;1.08;;;10.60;97.90;;;;;;6180835;23;20017;-60
2023/12/29 05:25:22;;;;;;;1.88;0.90;;;10.60;98.00;;;;;;6182058;23;20048;-61
2023/12/29 05:28:07;;;;;;;1.95;1.15;;;10.60;98.00;;;;;;6182063;23;20013;-62
2023/12/29 05:30:53;;;;;;;1.88;1.15;;;10.60;98.00;;;;;;6181762;23;20088;-61
2023/12/29 05:33:39;;;;;;;2.13;1.08;;;10.60;98.00;;;;;;6179876;23;20504;-61
2023/12/29 05:36:25;;;;;;;3.13;1.10;;;10.60;98.00;;;;;;6180497;23;20334;-62
2023/12/29 05:39:11;;;;;;;1.00;0.85;;;10.60;98.00;;;;;;6182243;23;20013;-60
2023/12/29 05:41:57;;;;;;;1.27;0.88;;;10.60;98.10;;;;;;6181233;23;20468;-63
2023/12/29 05:44:43;;;;;;;1.98;1.10;;;10.60;98.10;;;;;;6180078;23;20069;-60
2023/12/29 05:47:30;;;;;;;1.95;1.35;;;10.60;98.10;;;;;;6182974;23;20013;-60
2023/12/29 05:50:16;;;;;;;2.22;1.13;;;10.60;98.10;;;;;;6180813;23;20019;-61
2023/12/29 05:53:02;;;;;;;1.52;0.90;;;10.70;98.10;;;;;;6180381;23;20037;-61
2023/12/29 05:55:48;;;;;;;1.23;1.00;;;10.70;98.10;;;;;;6180215;23;20024;-60
2023/12/29 05:58:33;;;;;;;1.17;1.08;;;10.70;98.00;;;;;;6180000;23;20495;-61
2023/12/29 06:01:20;;;;;;;1.33;1.00;;;10.70;98.00;;;;;;6181706;23;20028;-61
2023/12/29 06:04:06;;;;;;;1.75;0.90;;;10.80;98.00;;;;;;6181133;23;20021;-63
2023/12/29 06:06:52;;;;;;;3.40;1.10;;;10.80;97.90;;;;;;6181605;23;20043;-62
2023/12/29 06:09:37;;;;;;;2.90;1.40;;;10.80;97.90;;;;;;6181334;23;20299;-61
2023/12/29 06:12:24;;;;;;;1.02;0.90;;;10.80;97.90;;;;;;6182135;23;20019;-62
2023/12/29 06:15:13;;;;;;;1.65;1.10;;;10.80;97.80;;;;;;6179808;23;20088;-61
2023/12/29 06:17:59;;;;;;;1.73;1.15;;;10.80;97.80;;;;;;6181252;23;20063;-61
2023/12/29 06:20:45;;;;;;;1.55;1.27;;;10.90;97.80;;;;;;6180087;23;20005;-62
2023/12/29 06:23:31;;;;;;;2.90;1.00;;;10.80;97.70;;;;;;6181611;23;20032;-62
2023/12/29 06:26:18;;;;;;;1.50;1.15;;;10.90;97.80;;;;;;6180597;23;20072;-62
2023/12/29 06:29:04;;;;;;;2.92;1.05;;;10.90;97.80;;;;;;6180635;23;20039;-63
2023/12/29 06:31:50;;;;;;;4.15;1.13;;;10.90;97.80;;;;;;6179209;23;20008;-62
2023/12/29 06:34:36;;;;;;;1.70;1.15;;;10.90;97.80;;;;;;6179886;23;20341;-63
2023/12/29 06:37:22;;;;;;;1.52;0.77;;;10.90;97.70;;;;;;6180426;23;20081;-62
2023/12/29 06:40:08;;;;;;;2.20;1.08;;;11.00;97.70;;;;;;6180555;23;20017;-62
2023/12/29 06:42:54;;;;;;;2.15;1.10;;;11.00;97.70;;;;;;6182001;23;20452;-62
2023/12/29 06:45:40;;;;;;;1.67;1.17;;;11.00;97.60;;;;;;6179260;23;20027;-62
2023/12/29 06:48:26;;;;;;;2.53;0.95;;;11.00;97.60;;;;;;6181126;23;20587;-62
2023/12/29 06:51:17;;;;;;;1.08;0.93;;;11.10;97.60;;;;;;6181173;23;20013;-62
2023/12/29 06:54:03;;;;;;;1.08;0.93;;;11.00;97.50;;;;;;6178894;23;20052;-63
2023/12/29 06:56:49;;;;;;;1.45;1.00;;;11.10;97.50;;;;;;6181872;23;20020;-68
2023/12/29 06:59:35;;;;;;;1.83;1.55;;;11.10;97.50;;;;;;6159241;23;20009;-68
2023/12/29 07:02:21;;;;;;;1.95;1.23;;;11.10;97.50;;;;;;6181009;23;20024;-62
2023/12/29 07:05:07;;;;;;;1.38;1.05;;;11.10;97.40;;;;;;6179726;23;20474;-61
2023/12/29 07:07:53;;;;;;;1.42;1.10;;;11.20;97.40;;;;;;6180975;23;20406;-62
2023/12/29 07:10:39;;;;;;;1.88;1.17;;;11.20;97.40;;;;;;6177893;23;20417;-62
2023/12/29 07:13:25;;;;;;;4.90;1.50;;;11.10;97.30;;;;;;6182079;23;20472;-62
2023/12/29 07:16:11;;;;;;;2.55;1.60;;;11.20;97.30;;;;;;6159204;23;20004;-62
2023/12/29 07:18:57;;;;;;;2.33;1.10;;;11.20;97.30;;;;;;6180323;23;20016;-63
2023/12/29 07:21:43;;;;;;;2.75;1.33;;;11.30;97.30;;;;;;6179598;23;20085;-63
2023/12/29 07:24:29;;;;;;;1.95;1.20;;;11.20;97.30;;;;;;6181157;23;20021;-62
2023/12/29 07:27:15;;;;;;;2.70;1.58;;;11.30;97.30;;;;;;6180453;23;20059;-63
2023/12/29 07:30:01;;;;;;;2.50;1.40;;;11.30;97.30;;;;;;6180961;23;20020;-63
2023/12/29 07:32:47;;;;;;;1.88;1.20;;;11.30;97.30;;;;;;6181086;23;20068;-62
2023/12/29 07:35:33;;;;;;;2.45;1.13;;;11.30;97.30;;;;;;6180164;23;20009;-63
2023/12/29 07:38:19;;;;;;;2.40;1.30;;;11.30;97.30;;;;;;6178796;23;20016;-64
2023/12/29 07:41:05;;;;;;;1.95;1.20;;;11.40;97.30;;;;;;6176609;23;20016;-63
2023/12/29 07:43:51;;;;;;;2.10;1.17;;;11.40;97.30;;;;;;6177943;23;20009;-63
2023/12/29 07:46:38;;;;;;;1.92;1.20;;;11.40;97.30;;;;;;6183013;23;20164;-62
2023/12/29 07:49:25;;;;;;;2.08;1.10;;;11.40;97.20;;;;;;6178712;23;20005;-63
2023/12/29 07:52:11;;;;;;;2.10;1.15;;;11.40;97.20;;;;;;6179808;23;20017;-63
2023/12/29 07:54:57;;;;;;;2.40;1.63;;;11.40;97.20;;;;;;6177344;23;20021;-63
2023/12/29 07:57:43;;;;;;;2.42;1.40;;;11.40;97.20;;;;;;6179358;23;20015;-63
2023/12/29 08:00:29;;;;;;;2.17;1.27;;;11.40;97.20;;;;;;6180289;23;20095;-63
2023/12/29 08:03:15;;;;;;;4.43;1.35;;;11.40;97.20;;;;;;6180719;23;20021;-63
2023/12/29 08:06:00;;;;;;;3.13;1.58;;;11.40;97.20;;;;;;6177745;23;20028;-64
2023/12/29 08:08:46;;;;;;;3.65;1.30;;;11.50;97.20;;;;;;6180348;23;20399;-65
2023/12/29 08:11:32;;;;;;;1.52;0.90;;;11.40;97.20;;;;;;6158155;23;20009;-64
2023/12/29 08:14:18;;;;;;;1.75;1.10;;;11.50;97.20;;;;;;6180945;23;20109;-67
2023/12/29 08:17:04;;;;;;;5.07;1.60;;;11.50;97.10;;;;;;6178557;23;20020;-74
2023/12/29 08:19:50;;;;;;;3.15;1.40;;;11.50;97.20;;;;;;6179443;23;20016;-74
2023/12/29 08:22:36;;;;;;;4.82;1.48;;;11.60;97.30;;;;;;6179453;23;20020;-74
2023/12/29 08:25:22;;;;;;;3.17;1.60;;;11.60;97.40;;;;;;6178577;23;20457;-75
2023/12/29 08:28:08;;;;;;;4.57;1.45;;;11.70;97.30;;;;;;6160039;23;20009;-78
2023/12/29 08:30:54;;;;;;;5.93;1.63;;;11.60;97.30;;;;;;6179628;23;20020;-76
2023/12/29 08:33:40;;;;;;;2.17;1.30;;;11.70;97.30;;;;;;6178464;23;20013;-75
2023/12/29 08:36:26;;;;;;;5.05;1.50;;;11.80;97.20;;;;;;6159261;23;20032;-76
2023/12/29 08:39:12;;;;;;;3.75;1.60;;;11.80;97.20;;;;;;6180644;23;20008;-74
2023/12/29 08:41:58;;;;;;;3.92;1.38;;;11.90;97.20;;;;;;6179727;23;20013;-74
2023/12/29 08:44:43;;;;;;;2.03;1.15;;;11.90;97.10;;;;;;6178521;23;20442;-74
2023/12/29 08:47:29;;;;;;;4.03;1.60;;;11.90;97.00;;;;;;6178554;23;20009;-74
2023/12/29 08:50:16;;;;;;;3.28;1.83;;;11.90;97.00;;;;;;6158221;23;20084;-74
2023/12/29 08:53:02;;;;;;;5.35;1.60;;;11.90;97.00;;;;;;6178242;23;20043;-74
2023/12/29 08:55:48;;;;;;;3.17;1.90;;;11.90;97.00;;;;;;6181498;23;20009;-76
2023/12/29 08:58:34;;;;;;;3.88;2.00;;;11.90;96.90;;;;;;6159111;23;20449;-76
2023/12/29 09:01:20;;;;;;;3.08;1.90;;;11.90;96.90;;;;;;6180165;23;20021;-75
2023/12/29 09:04:06;;;;;;;3.80;1.70;;;11.90;96.90;;;;;;6178749;23;20013;-76
2023/12/29 09:06:53;;;;;;;3.03;1.50;;;11.90;96.90;;;;;;6180616;23;20319;-73
2023/12/29 09:09:39;;;;;;;3.95;1.58;;;11.90;96.90;;;;;;6158026;23;20100;-75
2023/12/29 09:12:25;;;;;;;3.17;1.75;;;11.90;96.90;;;;;;6177380;23;20001;-75
2023/12/29 09:15:11;;;;;;;3.88;1.58;;;11.90;96.90;;;;;;6156830;23;20013;-74
2023/12/29 09:17:57;;;;;;;4.40;1.75;;;11.90;96.90;;;;;;6178815;23;20005;-75
2023/12/29 09:20:42;;;;;;;4.05;1.65;;;11.90;96.90;;;;;;6178795;23;20028;-75
2023/12/29 09:23:28;;;;;;;2.10;1.20;;;12.00;96.90;;;;;;6180410;23;20009;-76
2023/12/29 09:26:14;;;;;;;4.25;1.45;;;12.00;96.90;;;;;;6179621;23;20028;-77
2023/12/29 09:29:01;;;;;;;3.63;1.65;;;12.10;96.90;;;;;;6179702;23;20607;-76
2023/12/29 09:31:46;;;;;;;2.17;1.20;;;12.20;96.90;;;;;;6177949;23;20021;-75
2023/12/29 09:34:32;;;;;;;3.92;1.27;;;12.20;96.80;;;;;;6179131;23;20009;-76
2023/12/29 09:37:18;;;;;;;2.05;1.25;;;12.20;96.80;;;;;;6180157;23;20016;-76
2023/12/29 09:40:05;;;;;;;3.80;1.30;;;12.20;96.70;;;;;;6178644;23;20009;-75
2023/12/29 09:42:52;;;;;;;3.00;1.40;;;12.20;96.70;;;;;;6179710;23;20327;-75
2023/12/29 09:45:39;;;;;;;3.45;1.20;;;12.30;96.80;;;;;;6177218;23;20025;-75
2023/12/29 09:48:27;;;;;;;3.38;1.40;;;12.30;96.70;;;;;;6181847;23;20063;-75
2023/12/29 09:51:15;;;;;;;2.85;1.70;;;12.30;96.70;;;;;;6159603;23;20335;-74
2023/12/29 09:54:01;;;;;;;4.00;1.33;;;12.40;96.60;;;;;;6181932;23;20016;-75
2023/12/29 09:56:49;;;;;;;4.50;1.67;;;12.40;96.60;;;;;;6181226;23;20045;-77
2023/12/29 09:59:36;;;;;;;18.67;2.97;;;12.50;96.60;;;;;;6182342;23;20438;-76
2023/12/29 10:02:22;;;;;;;2.30;1.30;;;12.50;96.60;;;;;;6181743;23;20079;-76
2023/12/29 10:05:09;;;;;;;5.68;2.22;;;12.50;96.50;;;;;;6179251;23;20024;-74
2023/12/29 10:07:57;;;;;;;5.55;1.95;;;12.60;96.50;;;;;;6181132;23;20343;-73
2023/12/29 10:10:44;;;;;;;4.50;1.92;;;12.60;96.40;;;;;;6182113;23;20450;-78
2023/12/29 10:13:33;;;;;;;3.33;1.50;;;12.60;96.30;;;;;;6180682;23;20009;-70
2023/12/29 10:16:38;;;;;;;5.10;1.60;;;12.70;96.30;;;;;;6183412;23;20053;-70
2023/12/29 10:19:39;;;;;;;2.85;1.65;;;12.70;96.20;;;;;;6180642;23;20009;-70
2023/12/29 10:22:41;;;;;;;2.63;1.50;;;12.70;96.20;;;;;;6183368;23;20005;-71
2023/12/29 10:25:27;;;;;;;2.90;1.30;;;12.70;96.10;;;;;;6177070;23;20024;-70
2023/12/29 10:28:13;;;;;;;3.83;1.92;;;12.80;96.10;;;;;;6182199;23;20068;-70
2023/12/29 10:31:00;;;;;;;4.15;1.50;;;12.90;96.10;;;;;;6181207;23;20009;-70
2023/12/29 10:33:50;;;;;;;3.22;1.38;;;12.90;96.10;;;;;;6182239;23;20013;-69
2023/12/29 10:36:49;;;;;;;1.85;1.17;;;12.90;96.00;;;;;;6181476;23;20090;-70
2023/12/29 10:39:36;;;;;;;2.92;1.40;;;12.90;95.90;;;;;;6179212;23;20109;-70
2023/12/29 10:42:22;;;;;;;3.20;1.40;;;13.00;95.90;;;;;;6179160;23;20067;-70
2023/12/29 10:45:09;;;;;;;4.53;1.65;;;13.00;95.90;;;;;;6178208;23;20021;-71
2023/12/29 10:47:55;;;;;;;2.95;1.40;;;13.00;95.80;;;;;;6182088;23;20017;-70
2023/12/29 10:50:44;;;;;;;3.22;1.90;;;13.00;95.70;;;;;;6180839;23;20009;-73
2023/12/29 10:53:32;;;;;;;5.38;2.40;;;13.10;95.70;;;;;;6181582;23;20037;-70
2023/12/29 10:56:22;;;;;;;5.80;2.33;;;13.10;95.60;;;;;;6179910;23;20009;-69
2023/12/29 10:59:08;;;;;;;3.38;1.73;;;13.10;95.60;;;;;;6180352;23;20048;-70
2023/12/29 11:01:53;;;;;;;4.30;1.70;;;13.10;95.50;;;;;;6181796;23;20446;-69
2023/12/29 11:04:41;;;;;;;4.45;1.48;;;13.20;95.50;;;;;;6177131;23;20024;-69
2023/12/29 11:07:37;;;;;;;3.13;1.48;;;13.20;95.50;;;;;;6180449;23;20350;-69
2023/12/29 11:10:23;;;;;;;1.98;1.25;;;13.20;95.40;;;;;;6179520;23;20080;-69
2023/12/29 11:13:13;;;;;;;3.15;1.88;;;13.20;95.40;;;;;;6181738;23;20009;-70
2023/12/29 11:16:01;;;;;;;3.45;1.65;;;13.30;95.30;;;;;;6157138;23;20501;-69
2023/12/29 11:18:50;;;;;;;3.08;1.60;;;13.30;95.20;;;;;;6181337;23;20027;-69
2023/12/29 11:21:37;;;;;;;4.93;1.70;;;13.20;95.10;;;;;;6181165;23;20013;-69
2023/12/29 11:24:24;;;;;;;2.95;1.95;;;13.30;95.10;;;;;;6181305;23;20517;-71
2023/12/29 11:27:11;;;;;;;5.75;1.50;;;13.30;95.00;;;;;;6182782;23;20337;-69
2023/12/29 11:29:59;;;;;;;3.20;2.05;;;13.30;95.00;;;;;;6180355;23;20099;-70
2023/12/29 11:32:54;;;;;;;4.60;2.05;;;13.30;95.00;;;;;;6177994;23;20076;-70
2023/12/29 11:35:57;;;;;;;5.00;2.45;;;13.40;94.90;;;;;;6182375;23;20071;-69
2023/12/29 11:39:02;;;;;;;3.47;1.98;;;13.40;94.90;;;;;;6179223;23;20517;-70
2023/12/29 11:42:03;;;;;;;3.60;1.60;;;13.40;94.90;;;;;;6178788;23;20460;-70
2023/12/29 11:44:50;;;;;;;2.78;1.55;;;13.30;94.80;;;;;;6179568;23;20017;-70
2023/12/29 11:47:39;;;;;;;4.47;1.90;;;13.40;94.90;;;;;;6181235;23;20032;-70
2023/12/29 11:50:33;;;;;;;3.55;1.50;;;13.40;94.80;;;;;;6178858;23;20013;-70
2023/12/29 11:53:32;;;;;;;4.45;2.08;;;13.40;94.70;;;;;;6179123;23;20016;-69
2023/12/29 11:56:18;;;;;;;3.40;2.13;;;13.40;94.70;;;;;;6181918;23;20085;-69
2023/12/29 11:59:24;;;;;;;3.78;1.90;;;13.40;94.70;;;;;;6180400;23;20127;-70
2023/12/29 12:02:28;;;;;;;5.97;2.50;;;13.40;94.70;;;;;;6180137;23;20311;-69
2023/12/29 12:05:47;;;;;;;13.38;2.95;;;13.40;94.70;;;;;;6179452;23;20115;-70
2023/12/29 12:08:35;;;;;;;5.65;3.05;;;13.40;94.80;;;;;;6179458;23;20112;-70
2023/12/29 12:11:31;;;;;;;4.72;2.40;;;13.40;94.90;;;;;;6178406;23;20017;-70
2023/12/29 12:15:02;;;;;;;3.47;1.50;;;13.40;94.90;;;;;;6178781;23;20032;-68
2023/12/29 12:17:50;;;;;;;2.83;1.60;;;13.40;94.90;;;;;;6181941;23;20349;-69
2023/12/29 12:20:36;;;;;;;3.50;2.15;;;13.40;95.00;;;;;;6179014;23;20009;-69
2023/12/29 12:23:25;;;;;;;3.03;1.92;;;13.30;95.00;;;;;;6179273;23;20009;-69
2023/12/29 12:26:11;;;;;;;3.15;1.50;;;13.30;95.00;;;;;;6180049;23;20253;-70
2023/12/29 12:28:58;;;;;;;3.85;1.75;;;13.30;95.00;;;;;;6177752;23;20580;-69
2023/12/29 12:31:54;;;;;;;4.38;1.63;;;13.30;95.10;;;;;;6156958;23;20005;-69
2023/12/29 12:34:40;;;;;;;4.53;2.00;;;13.30;95.30;;;;;;6178276;23;20335;-73
2023/12/29 12:37:28;;;;;;;6.78;2.33;;;13.20;95.40;;;;;;6178287;23;20035;-69
2023/12/29 12:40:26;;;;;;;3.70;1.90;;;13.20;95.60;;;;;;6176299;23;20009;-69
2023/12/29 12:43:16;;;;;;;2.90;1.75;;;13.20;95.60;;;;;;6178442;23;20051;-67
2023/12/29 12:46:03;;;;;;;4.72;2.13;;;13.20;95.60;;;;;;6178425;23;20031;-69
2023/12/29 12:48:50;;;;;;;2.85;1.58;;;13.20;95.70;;;;;;6181492;23;20005;-70
2023/12/29 12:51:36;;;;;;;5.13;1.98;;;13.20;95.80;;;;;;6179087;23;20009;-68
2023/12/29 12:54:22;;;;;;;2.75;1.55;;;13.10;95.80;;;;;;6180559;23;20019;-70
2023/12/29 12:57:09;;;;;;;5.72;1.67;;;13.10;95.90;;;;;;6181005;23;20009;-70
2023/12/29 12:59:56;;;;;;;6.05;2.70;;;13.10;95.90;;;;;;6181480;23;20014;-69
2023/12/29 13:02:46;;;;;;;5.38;2.80;;;13.00;96.00;;;;;;6178426;23;20025;-70
2023/12/29 13:05:32;;;;;;;4.18;2.60;;;13.10;96.20;;;;;;6177556;23;20017;-70
2023/12/29 13:08:18;;;;;;;5.25;3.00;;;13.00;96.40;;;;;;6176979;23;20442;-70
2023/12/29 13:11:05;;;;;;;6.80;2.92;;;13.00;96.50;;;;;;6157735;23;20073;-69
2023/12/29 13:14:00;;;;;;;4.38;2.28;;;12.90;96.70;;;;;;6178718;23;20406;-69
2023/12/29 13:16:46;;;;;;;3.88;2.22;;;12.90;96.80;;;;;;6179510;23;20196;-69
2023/12/29 13:19:34;;;;;;;4.57;2.10;;;12.90;96.90;;;;;;6180814;23;20084;-70
2023/12/29 13:22:20;;;;;;;5.38;2.33;;;12.90;96.90;;;;;;6182576;23;20053;-69
2023/12/29 13:25:07;;;;;;;4.05;2.17;;;12.90;97.00;;;;;;6182062;23;20017;-70
2023/12/29 13:27:54;;;;;;;2.63;1.50;;;12.90;97.00;;;;;;6181156;23;20013;-70
2023/12/29 13:30:41;;;;;;;4.45;2.38;;;12.90;97.00;;;;;;6182915;23;20368;-69
2023/12/29 13:34:00;;;;;;;6.07;2.40;;;12.90;97.20;;;;;;6183201;23;20009;-69
2023/12/29 13:36:52;;;;;;;4.95;2.60;;;12.80;97.00;;;;;;6182800;23;20044;-69
2023/12/29 13:39:44;;;;;;;4.43;2.35;;;12.80;97.00;;;;;;6180633;23;20706;-70
2023/12/29 13:42:32;;;;;;;3.78;1.80;;;12.80;97.10;;;;;;6180154;23;20327;-70
2023/12/29 13:45:19;;;;;;;4.07;1.60;;;12.80;97.10;;;;;;6181835;23;20504;-68
2023/12/29 13:48:06;;;;;;;3.67;1.92;;;12.80;97.10;;;;;;6182753;23;20013;-69
2023/12/29 13:50:52;;;;;;;5.47;2.35;;;12.80;97.10;;;;;;6182418;23;20017;-70
2023/12/29 13:53:38;;;;;;;4.05;2.47;;;12.70;97.10;;;;;;6182448;23;20009;-69
2023/12/29 13:56:24;;;;;;;7.60;2.92;;;12.70;97.10;;;;;;6182518;23;20068;-69
2023/12/29 13:59:10;;;;;;;6.63;3.05;;;12.80;97.20;;;;;;6182242;23;20013;-69
2023/12/29 14:01:59;;;;;;;5.90;3.03;;;12.70;97.10;;;;;;6181989;23;20115;-69
2023/12/29 14:04:45;;;;;;;3.78;2.35;;;12.70;97.10;;;;;;6181402;23;20031;-69
2023/12/29 14:07:32;;;;;;;3.70;2.35;;;12.70;97.10;;;;;;6182430;23;20085;-69
2023/12/29 14:10:18;;;;;;;3.10;1.83;;;12.70;97.20;;;;;;6180136;23;20045;-69
2023/12/29 14:13:09;;;;;;;5.57;2.58;;;12.70;97.10;;;;;;6182198;23;20067;-68
2023/12/29 14:15:58;;;;;;;4.53;2.08;;;12.70;97.10;;;;;;6183007;23;20131;-68
2023/12/29 14:18:46;;;;;;;4.25;2.28;;;12.80;97.10;;;;;;6182722;23;20136;-69
2023/12/29 14:21:33;;;;;;;3.53;2.30;;;12.70;97.10;;;;;;6182259;23;20009;-68
2023/12/29 14:24:20;;;;;;;4.18;2.33;;;12.70;97.10;;;;;;6181402;23;20017;-68
2023/12/29 14:27:08;;;;;;;7.20;4.20;;;12.80;97.10;;;;;;6180374;23;20090;-69
2023/12/29 14:29:54;;;;;;;7.57;3.97;;;12.70;97.10;;;;;;6180511;23;20013;-69
2023/12/29 14:32:39;;;;;;;6.22;2.72;;;12.80;97.10;;;;;;6181304;23;20013;-69